Time;durP1;ratioP1;P1;durP2;ratioP2;P2;SDS_P1;SDS_P2;PMS_P1;PMS_P2;Temp;Humidity;BMP_temperature;BMP_pressure;BME280_temperature;BME280_humidity;BME280_pressure;Samples;Min_cycle;Max_cycle;Signal;HPM_P1;HPM_P2
2023/03/05 00:01:08;;;;;;;0.63;0.63;;;3.40;99.90;;;;;;6216562;23;20329;-77
2023/03/05 00:03:34;;;;;;;0.57;0.57;;;3.50;99.90;;;;;;6189551;23;20055;-77
2023/03/05 00:05:59;;;;;;;0.50;0.50;;;3.50;99.90;;;;;;6165081;23;20409;-77
2023/03/05 00:08:28;;;;;;;0.50;0.50;;;3.60;99.90;;;;;;6189447;23;20016;-77
2023/03/05 00:10:58;;;;;;;0.60;0.60;;;3.50;99.90;;;;;;6189254;23;20016;-77
2023/03/05 00:13:24;;;;;;;0.40;0.40;;;3.50;99.90;;;;;;6189536;23;20082;-77
2023/03/05 00:15:50;;;;;;;0.50;0.50;;;3.60;99.90;;;;;;6189417;23;20009;-77
2023/03/05 00:18:15;;;;;;;0.50;0.50;;;3.50;99.90;;;;;;6164694;23;20070;-77
2023/03/05 00:20:41;;;;;;;0.50;0.50;;;3.50;99.90;;;;;;6164697;23;20480;-77
2023/03/05 00:23:07;;;;;;;0.50;0.50;;;3.40;99.90;;;;;;6164507;23;20006;-77
2023/03/05 00:25:36;;;;;;;0.40;0.40;;;3.40;99.90;;;;;;6164741;23;20017;-77
2023/03/05 00:28:02;;;;;;;0.40;0.40;;;3.50;99.90;;;;;;6189347;23;20020;-77
2023/03/05 00:30:28;;;;;;;0.50;0.50;;;3.40;99.90;;;;;;6189361;23;20013;-77
2023/03/05 00:32:53;;;;;;;0.50;0.50;;;3.40;99.90;;;;;;6189489;23;20015;-77
2023/03/05 00:35:19;;;;;;;0.50;0.50;;;3.40;99.90;;;;;;6189261;23;20032;-77
2023/03/05 00:37:45;;;;;;;0.50;0.50;;;3.30;99.90;;;;;;6216344;23;20370;-77
2023/03/05 00:40:11;;;;;;;0.50;0.50;;;3.30;99.90;;;;;;6189290;23;20008;-77
2023/03/05 00:42:37;;;;;;;0.50;0.50;;;3.30;99.90;;;;;;6216341;23;20008;-78
2023/03/05 00:45:07;;;;;;;0.43;0.43;;;3.40;99.90;;;;;;6216182;23;20390;-78
2023/03/05 00:47:33;;;;;;;0.50;0.50;;;3.30;99.90;;;;;;6164579;23;20095;-77
2023/03/05 00:49:59;;;;;;;0.57;0.57;;;3.40;99.90;;;;;;6189430;23;20044;-78
2023/03/05 00:52:24;;;;;;;0.50;0.50;;;3.30;99.90;;;;;;6189242;23;20047;-78
2023/03/05 00:54:50;;;;;;;0.50;0.50;;;3.30;99.90;;;;;;6189172;23;20071;-77
2023/03/05 00:57:16;;;;;;;0.50;0.50;;;3.40;99.90;;;;;;6189656;23;20084;-78
2023/03/05 00:59:41;;;;;;;0.50;0.50;;;3.40;99.90;;;;;;6189142;23;20017;-77
2023/03/05 01:02:07;;;;;;;0.50;0.50;;;3.40;99.90;;;;;;6189354;23;20556;-78
2023/03/05 01:04:33;;;;;;;0.50;0.50;;;3.40;99.90;;;;;;6216230;23;20008;-78
2023/03/05 01:06:59;;;;;;;0.60;0.60;;;3.30;99.90;;;;;;6215816;23;20051;-78
2023/03/05 01:09:24;;;;;;;0.60;0.60;;;3.40;99.90;;;;;;6164432;23;20016;-78
2023/03/05 01:11:51;;;;;;;0.60;0.60;;;3.40;99.90;;;;;;6189250;23;20017;-78
2023/03/05 01:14:17;;;;;;;0.50;0.50;;;3.40;99.90;;;;;;6216266;23;20039;-78
2023/03/05 01:16:42;;;;;;;0.60;0.60;;;3.40;99.90;;;;;;6189329;23;20013;-77
2023/03/05 01:19:08;;;;;;;0.50;0.50;;;3.30;99.90;;;;;;6189190;23;20013;-77
2023/03/05 01:21:35;;;;;;;0.60;0.60;;;3.40;99.90;;;;;;6217479;23;20048;-78
2023/03/05 01:24:01;;;;;;;0.60;0.60;;;3.30;99.90;;;;;;6218129;23;20015;-77
2023/03/05 01:26:27;;;;;;;0.50;0.50;;;3.30;99.90;;;;;;6191091;23;20380;-77
2023/03/05 01:28:53;;;;;;;0.40;0.40;;;3.40;99.90;;;;;;6191108;23;20012;-77
2023/03/05 01:31:19;;;;;;;0.50;0.50;;;3.30;99.90;;;;;;6218378;23;20095;-77
2023/03/05 01:33:45;;;;;;;0.40;0.40;;;3.20;99.90;;;;;;6218058;23;20008;-77
2023/03/05 01:36:15;;;;;;;0.50;0.50;;;3.30;99.90;;;;;;6190971;23;20024;-77
2023/03/05 01:38:46;;;;;;;0.60;0.60;;;3.30;99.90;;;;;;6217959;23;20016;-78
2023/03/05 01:41:13;;;;;;;0.40;0.40;;;3.30;99.90;;;;;;6217555;23;20019;-78
2023/03/05 01:43:39;;;;;;;0.40;0.40;;;3.10;99.90;;;;;;6190861;23;20027;-77
2023/03/05 01:46:31;;;;;;;0.50;0.50;;;3.10;99.90;;;;;;6191272;23;20032;-77
2023/03/05 01:49:14;;;;;;;0.40;0.40;;;3.30;99.90;;;;;;6191302;23;20024;-77
2023/03/05 01:51:59;;;;;;;0.40;0.40;;;3.20;99.90;;;;;;6190893;23;20099;-77
2023/03/05 01:54:41;;;;;;;0.40;0.40;;;3.10;99.90;;;;;;6190785;23;20024;-78
2023/03/05 01:57:12;;;;;;;0.50;0.50;;;3.20;99.90;;;;;;6190666;23;20009;-78
2023/03/05 01:59:39;;;;;;;0.40;0.40;;;3.20;99.90;;;;;;6190829;23;20017;-78
2023/03/05 02:02:06;;;;;;;0.40;0.40;;;3.10;99.90;;;;;;6217799;23;20009;-77
2023/03/05 02:04:43;;;;;;;0.40;0.40;;;3.00;99.90;;;;;;6190568;23;20012;-78
2023/03/05 02:07:10;;;;;;;0.60;0.60;;;3.20;99.90;;;;;;6190699;23;20020;-77
2023/03/05 02:09:38;;;;;;;0.50;0.50;;;3.10;99.90;;;;;;6190697;23;20021;-77
2023/03/05 02:12:04;;;;;;;0.50;0.50;;;3.00;99.90;;;;;;6191133;23;20039;-77
2023/03/05 02:14:31;;;;;;;0.55;0.55;;;2.90;99.90;;;;;;6217394;23;20004;-78
2023/03/05 02:16:57;;;;;;;0.50;0.50;;;2.90;99.90;;;;;;6165992;23;20441;-78
2023/03/05 02:19:22;;;;;;;0.50;0.50;;;2.90;99.90;;;;;;6217783;23;20040;-78
2023/03/05 02:21:49;;;;;;;0.50;0.50;;;2.90;99.90;;;;;;6190695;23;20008;-78
2023/03/05 02:24:37;;;;;;;0.45;0.45;;;2.80;99.90;;;;;;6190627;23;20013;-78
2023/03/05 02:27:04;;;;;;;0.50;0.50;;;2.70;99.90;;;;;;6190099;23;20024;-78
2023/03/05 02:29:31;;;;;;;0.60;0.60;;;2.60;99.90;;;;;;6190674;23;20067;-78
2023/03/05 02:31:57;;;;;;;0.50;0.50;;;2.70;99.90;;;;;;6216760;23;20043;-78
2023/03/05 02:34:22;;;;;;;0.60;0.60;;;2.70;99.90;;;;;;6217562;23;20008;-78
2023/03/05 02:36:49;;;;;;;0.60;0.60;;;2.50;99.90;;;;;;6217408;23;20009;-78
2023/03/05 02:39:16;;;;;;;0.60;0.60;;;2.50;99.90;;;;;;6165575;23;20017;-78
2023/03/05 02:41:41;;;;;;;0.60;0.60;;;2.40;99.90;;;;;;6190095;23;20024;-78
2023/03/05 02:44:07;;;;;;;0.50;0.50;;;2.30;99.90;;;;;;6190230;23;20025;-77
2023/03/05 02:46:33;;;;;;;0.45;0.45;;;2.30;99.90;;;;;;6217404;23;20004;-78
2023/03/05 02:48:59;;;;;;;0.40;0.40;;;2.20;99.90;;;;;;6190653;23;20086;-78
2023/03/05 02:51:24;;;;;;;0.50;0.50;;;2.10;99.90;;;;;;6190274;23;20015;-78
2023/03/05 02:53:50;;;;;;;0.50;0.50;;;2.10;99.90;;;;;;6190306;23;20020;-78
2023/03/05 02:56:16;;;;;;;0.40;0.40;;;2.00;99.90;;;;;;6190708;23;20083;-78
2023/03/05 02:58:42;;;;;;;0.45;0.45;;;2.00;99.90;;;;;;6216673;23;20026;-78
2023/03/05 03:01:09;;;;;;;0.50;0.50;;;2.00;99.90;;;;;;6190214;23;20058;-78
2023/03/05 03:03:35;;;;;;;0.50;0.50;;;2.10;99.90;;;;;;6190268;23;20004;-78
2023/03/05 03:06:01;;;;;;;0.40;0.40;;;2.00;99.90;;;;;;6217125;23;20083;-78
2023/03/05 03:08:27;;;;;;;0.40;0.40;;;2.20;99.90;;;;;;6190086;23;20106;-78
2023/03/05 03:10:55;;;;;;;0.60;0.60;;;2.00;99.90;;;;;;6190206;23;20013;-78
2023/03/05 03:13:22;;;;;;;0.50;0.50;;;2.20;99.90;;;;;;6216642;23;20044;-78
2023/03/05 03:15:48;;;;;;;0.50;0.50;;;2.30;99.90;;;;;;6165035;23;20016;-78
2023/03/05 03:18:13;;;;;;;0.60;0.60;;;2.20;99.90;;;;;;6190224;23;20019;-78
2023/03/05 03:20:39;;;;;;;0.50;0.50;;;2.40;99.90;;;;;;6216865;23;20487;-78
2023/03/05 03:23:06;;;;;;;0.50;0.50;;;2.40;99.90;;;;;;6189963;23;20047;-78
2023/03/05 03:25:31;;;;;;;0.50;0.50;;;2.30;99.90;;;;;;6165172;23;20091;-78
2023/03/05 03:27:57;;;;;;;0.50;0.50;;;2.50;99.90;;;;;;6189904;23;20044;-78
2023/03/05 03:30:23;;;;;;;0.60;0.60;;;2.50;99.90;;;;;;6189968;23;20016;-78
2023/03/05 03:32:50;;;;;;;0.50;0.50;;;2.60;99.90;;;;;;6190475;23;20016;-78
2023/03/05 03:35:16;;;;;;;0.50;0.50;;;2.50;99.90;;;;;;6190328;23;20009;-78
2023/03/05 03:37:42;;;;;;;0.60;0.60;;;2.60;99.90;;;;;;6189557;23;20009;-78
2023/03/05 03:40:08;;;;;;;0.45;0.45;;;2.40;99.90;;;;;;6216502;23;20008;-77
2023/03/05 03:42:34;;;;;;;0.50;0.50;;;2.40;99.90;;;;;;6216354;23;20118;-78
2023/03/05 03:45:01;;;;;;;0.50;0.50;;;2.40;99.90;;;;;;6189658;23;20437;-78
2023/03/05 03:47:27;;;;;;;0.40;0.40;;;2.50;99.90;;;;;;6165045;23;20104;-78
2023/03/05 03:49:53;;;;;;;0.50;0.50;;;2.60;99.90;;;;;;6216660;23;20343;-78
2023/03/05 03:52:19;;;;;;;0.50;0.50;;;2.70;99.90;;;;;;6189691;23;20044;-78
2023/03/05 03:54:45;;;;;;;0.40;0.40;;;2.50;99.90;;;;;;6216268;23;20016;-78
2023/03/05 03:57:10;;;;;;;0.50;0.50;;;2.60;99.90;;;;;;6216402;23;20012;-78
2023/03/05 03:59:38;;;;;;;0.60;0.60;;;2.70;99.90;;;;;;6216604;23;20015;-78
2023/03/05 04:02:04;;;;;;;0.70;0.70;;;2.50;99.90;;;;;;6164796;23;20369;-78
2023/03/05 04:04:29;;;;;;;0.50;0.50;;;2.70;99.90;;;;;;6189907;23;20020;-78
2023/03/05 04:06:56;;;;;;;0.50;0.50;;;2.60;99.90;;;;;;6189578;23;20477;-78
2023/03/05 04:09:21;;;;;;;0.50;0.50;;;2.60;99.90;;;;;;6189480;23;20017;-78
2023/03/05 04:11:47;;;;;;;0.60;0.60;;;2.70;99.90;;;;;;6164813;23;20009;-78
2023/03/05 04:14:12;;;;;;;0.50;0.50;;;2.50;99.90;;;;;;6189634;23;20381;-78
2023/03/05 04:16:38;;;;;;;0.50;0.50;;;2.60;99.90;;;;;;6189418;23;20092;-78
2023/03/05 04:19:03;;;;;;;0.60;0.60;;;2.60;99.90;;;;;;6165024;23;20008;-78
2023/03/05 04:21:29;;;;;;;0.50;0.50;;;2.60;99.90;;;;;;6189918;23;20008;-78
2023/03/05 04:23:55;;;;;;;0.40;0.40;;;2.50;99.90;;;;;;6189880;23;20023;-78
2023/03/05 04:26:20;;;;;;;0.60;0.60;;;2.60;99.90;;;;;;6189530;23;20280;-78
2023/03/05 04:28:47;;;;;;;0.50;0.50;;;2.60;99.90;;;;;;6189462;23;20019;-78
2023/03/05 04:31:12;;;;;;;0.50;0.50;;;2.40;99.90;;;;;;6189345;23;20017;-78
2023/03/05 04:33:38;;;;;;;0.50;0.50;;;2.50;99.90;;;;;;6189862;23;20119;-76
2023/03/05 04:36:04;;;;;;;0.63;0.63;;;2.30;99.90;;;;;;6189165;23;20016;-76
2023/03/05 04:38:29;;;;;;;0.60;0.60;;;2.50;99.90;;;;;;6215811;23;20075;-76
2023/03/05 04:40:55;;;;;;;0.40;0.40;;;2.30;99.90;;;;;;6189215;23;20446;-76
2023/03/05 04:43:21;;;;;;;0.60;0.60;;;2.20;99.90;;;;;;6189228;23;20016;-77
2023/03/05 04:45:46;;;;;;;0.47;0.47;;;2.40;99.90;;;;;;6216709;23;20017;-76
2023/03/05 04:48:12;;;;;;;0.52;0.52;;;2.50;99.90;;;;;;6216284;23;20055;-76
2023/03/05 04:50:38;;;;;;;0.60;0.60;;;2.40;99.90;;;;;;6190130;23;20461;-76
2023/03/05 04:53:04;;;;;;;0.50;0.50;;;2.40;99.90;;;;;;6189116;23;20111;-77
2023/03/05 04:55:30;;;;;;;0.60;0.60;;;2.40;99.90;;;;;;6189940;23;20017;-77
2023/03/05 04:57:56;;;;;;;0.50;0.50;;;2.60;99.90;;;;;;6191383;23;20088;-77
2023/03/05 05:00:21;;;;;;;0.50;0.50;;;2.70;99.90;;;;;;6191637;23;20032;-77
2023/03/05 05:02:49;;;;;;;0.50;0.50;;;2.70;99.90;;;;;;6218272;23;20015;-77
2023/03/05 05:05:18;;;;;;;0.40;0.40;;;2.50;99.90;;;;;;6166367;23;20429;-77
2023/03/05 05:07:44;;;;;;;0.43;0.43;;;2.60;99.90;;;;;;6218162;23;20036;-77
2023/03/05 05:10:10;;;;;;;0.50;0.50;;;2.40;99.90;;;;;;6191112;23;20013;-77
2023/03/05 05:12:36;;;;;;;0.40;0.40;;;2.50;99.90;;;;;;6191670;23;20074;-77
2023/03/05 05:15:04;;;;;;;0.45;0.45;;;2.40;99.90;;;;;;6190893;23;20017;-77
2023/03/05 05:17:31;;;;;;;0.50;0.50;;;2.40;99.90;;;;;;6191265;23;20017;-77
2023/03/05 05:19:58;;;;;;;0.40;0.40;;;2.40;99.90;;;;;;6166201;23;20008;-77
2023/03/05 05:22:24;;;;;;;0.60;0.60;;;2.40;99.90;;;;;;6190850;23;20013;-77
2023/03/05 05:24:50;;;;;;;0.55;0.55;;;2.40;99.90;;;;;;6191269;23;20009;-77
2023/03/05 05:27:16;;;;;;;0.40;0.40;;;2.60;99.90;;;;;;6217833;23;20084;-77
2023/03/05 05:29:41;;;;;;;0.60;0.60;;;2.30;99.90;;;;;;6190787;23;20400;-77
2023/03/05 05:32:07;;;;;;;0.50;0.50;;;2.60;99.90;;;;;;6191024;23;20013;-77
2023/03/05 05:34:32;;;;;;;0.50;0.50;;;2.30;99.90;;;;;;6190879;23;20062;-76
2023/03/05 05:36:58;;;;;;;0.50;0.50;;;2.30;99.90;;;;;;6217816;23;20131;-77
2023/03/05 05:39:24;;;;;;;0.60;0.60;;;2.30;99.90;;;;;;6190959;23;20114;-77
2023/03/05 05:41:51;;;;;;;0.50;0.50;;;2.30;99.90;;;;;;6190634;23;20081;-77
2023/03/05 05:44:16;;;;;;;0.40;0.40;;;2.50;99.90;;;;;;6166119;23;20023;-77
2023/03/05 05:46:42;;;;;;;0.50;0.50;;;2.30;99.90;;;;;;6166052;23;20091;-77
2023/03/05 05:49:08;;;;;;;0.45;0.45;;;2.40;99.90;;;;;;6217920;23;20422;-78
2023/03/05 05:51:33;;;;;;;0.50;0.50;;;2.40;99.90;;;;;;6217750;23;20043;-77
2023/03/05 05:53:59;;;;;;;0.40;0.40;;;2.30;99.90;;;;;;6191272;23;20016;-77
2023/03/05 05:56:25;;;;;;;0.50;0.50;;;2.40;99.90;;;;;;6190689;23;20323;-77
2023/03/05 05:58:50;;;;;;;0.50;0.50;;;2.30;99.90;;;;;;6190953;23;20008;-78
2023/03/05 06:01:26;;;;;;;0.40;0.40;;;2.30;99.90;;;;;;6190989;23;20116;-77
2023/03/05 06:03:52;;;;;;;0.50;0.50;;;2.60;99.90;;;;;;6190873;23;20043;-77
2023/03/05 06:06:21;;;;;;;0.30;0.30;;;2.40;99.90;;;;;;6190828;23;20021;-77
2023/03/05 06:08:47;;;;;;;0.50;0.50;;;2.40;99.90;;;;;;6190720;23;20089;-77
2023/03/05 06:11:16;;;;;;;0.40;0.40;;;2.30;99.90;;;;;;6217751;23;20009;-77
2023/03/05 06:13:41;;;;;;;0.40;0.40;;;2.30;99.90;;;;;;6165923;23;20020;-77
2023/03/05 06:16:11;;;;;;;0.50;0.50;;;2.30;99.90;;;;;;6190529;23;20346;-77
2023/03/05 06:18:37;;;;;;;0.47;0.47;;;2.30;99.90;;;;;;6217764;23;20013;-77
2023/03/05 06:21:05;;;;;;;0.50;0.50;;;2.50;99.90;;;;;;6165944;23;20408;-77
2023/03/05 06:23:31;;;;;;;0.50;0.50;;;2.50;99.90;;;;;;6217085;23;20035;-77
2023/03/05 06:26:03;;;;;;;0.50;0.50;;;2.30;99.90;;;;;;6165769;23;20012;-77
2023/03/05 06:28:29;;;;;;;0.50;0.50;;;2.40;99.90;;;;;;6165595;23;20013;-77
2023/03/05 06:31:10;;;;;;;0.55;0.55;;;2.40;99.90;;;;;;6217315;23;20020;-77
2023/03/05 06:33:36;;;;;;;0.43;0.43;;;2.40;99.90;;;;;;6217048;23;20437;-77
2023/03/05 06:36:03;;;;;;;0.50;0.50;;;2.20;99.90;;;;;;6190155;23;20031;-77
2023/03/05 06:38:29;;;;;;;0.50;0.50;;;2.40;99.90;;;;;;6217245;23;20066;-77
2023/03/05 06:40:58;;;;;;;0.50;0.50;;;2.40;99.90;;;;;;6216750;23;20021;-77
2023/03/05 06:43:24;;;;;;;0.45;0.45;;;2.40;99.90;;;;;;6216852;23;20473;-77
2023/03/05 06:46:01;;;;;;;0.45;0.45;;;2.40;99.90;;;;;;6190301;23;20012;-77
2023/03/05 06:48:26;;;;;;;0.60;0.60;;;2.20;99.90;;;;;;6190688;23;20094;-77
2023/03/05 06:50:52;;;;;;;0.40;0.40;;;2.20;99.90;;;;;;6190346;23;20008;-78
2023/03/05 06:53:17;;;;;;;0.40;0.40;;;2.30;99.90;;;;;;6216793;23;20437;-77
2023/03/05 06:55:43;;;;;;;0.40;0.40;;;2.30;99.90;;;;;;6217128;23;20044;-77
2023/03/05 06:58:09;;;;;;;0.45;0.45;;;2.40;99.90;;;;;;6190259;23;20378;-77
2023/03/05 07:00:34;;;;;;;0.40;0.40;;;2.40;99.90;;;;;;6165466;23;20015;-77
2023/03/05 07:03:00;;;;;;;0.50;0.50;;;2.40;99.90;;;;;;6190708;23;20009;-77
2023/03/05 07:05:26;;;;;;;0.50;0.50;;;2.20;99.90;;;;;;6216699;23;20062;-77
2023/03/05 07:07:51;;;;;;;0.40;0.40;;;2.40;99.90;;;;;;6190132;23;20020;-77
2023/03/05 07:10:18;;;;;;;0.43;0.43;;;2.40;99.90;;;;;;6165553;23;20083;-77
2023/03/05 07:12:43;;;;;;;0.50;0.50;;;2.40;99.90;;;;;;6190014;23;20055;-77
2023/03/05 07:15:09;;;;;;;0.50;0.50;;;2.50;99.90;;;;;;6189951;23;20012;-78
2023/03/05 07:17:35;;;;;;;0.40;0.40;;;2.50;99.90;;;;;;6165221;23;20005;-77
2023/03/05 07:20:01;;;;;;;0.40;0.40;;;2.30;99.90;;;;;;6189732;23;20020;-77
2023/03/05 07:22:26;;;;;;;0.45;0.45;;;2.30;99.90;;;;;;6216871;23;20012;-77
2023/03/05 07:24:52;;;;;;;0.40;0.40;;;2.60;99.90;;;;;;6190269;23;20076;-77
2023/03/05 07:27:17;;;;;;;0.50;0.50;;;2.60;99.90;;;;;;6190256;23;20009;-77
2023/03/05 07:29:43;;;;;;;0.50;0.50;;;2.60;99.90;;;;;;6190325;23;20087;-77
2023/03/05 07:32:08;;;;;;;0.60;0.60;;;2.60;99.90;;;;;;6216869;23;20062;-77
2023/03/05 07:34:37;;;;;;;0.40;0.40;;;2.60;99.90;;;;;;6216825;23;20012;-77
2023/03/05 07:37:02;;;;;;;0.60;0.60;;;2.90;99.90;;;;;;6189670;23;20489;-77
2023/03/05 07:39:28;;;;;;;0.50;0.50;;;3.00;99.90;;;;;;6190290;23;20040;-77
2023/03/05 07:41:53;;;;;;;0.50;0.50;;;2.80;99.90;;;;;;6216185;23;20055;-78
2023/03/05 07:44:19;;;;;;;0.40;0.40;;;3.00;99.90;;;;;;6216869;23;20047;-78
2023/03/05 07:46:45;;;;;;;0.50;0.50;;;3.20;99.90;;;;;;6189913;23;20020;-77
2023/03/05 07:49:10;;;;;;;0.50;0.50;;;3.10;99.90;;;;;;6189976;23;20013;-79
2023/03/05 07:51:36;;;;;;;0.57;0.57;;;3.30;99.90;;;;;;6189853;23;20024;-71
2023/03/05 07:54:02;;;;;;;0.40;0.40;;;3.40;99.90;;;;;;6216219;23;20020;-71
2023/03/05 07:56:31;;;;;;;0.50;0.50;;;3.40;99.90;;;;;;6189559;23;20012;-70
2023/03/05 07:58:58;;;;;;;0.40;0.40;;;3.50;99.90;;;;;;6164911;23;20020;-69
2023/03/05 08:01:24;;;;;;;0.43;0.43;;;3.40;99.90;;;;;;6216470;23;20012;-69
2023/03/05 08:03:50;;;;;;;0.45;0.45;;;3.50;99.90;;;;;;6189737;23;20039;-69
2023/03/05 08:06:16;;;;;;;0.50;0.50;;;3.50;99.90;;;;;;6216558;23;20334;-69
2023/03/05 08:08:41;;;;;;;0.50;0.50;;;3.50;99.90;;;;;;6216557;23;20086;-69
2023/03/05 08:11:10;;;;;;;0.43;0.43;;;3.60;99.90;;;;;;6189458;23;20020;-69
2023/03/05 08:13:37;;;;;;;0.40;0.40;;;3.60;99.90;;;;;;6216372;23;20019;-69
2023/03/05 08:16:08;;;;;;;0.40;0.40;;;3.80;99.90;;;;;;6216373;23;20039;-69
2023/03/05 08:18:34;;;;;;;0.50;0.50;;;3.70;99.90;;;;;;6189635;23;20012;-69
2023/03/05 08:21:00;;;;;;;0.45;0.45;;;3.80;99.90;;;;;;6189456;23;20023;-69
2023/03/05 08:23:26;;;;;;;0.30;0.30;;;3.80;99.90;;;;;;6189470;23;20012;-69
2023/03/05 08:25:52;;;;;;;0.50;0.50;;;3.90;99.90;;;;;;6164692;23;20025;-70
2023/03/05 08:28:18;;;;;;;0.50;0.50;;;3.80;99.90;;;;;;6216435;23;20047;-68
2023/03/05 08:30:45;;;;;;;0.50;0.50;;;3.90;99.90;;;;;;6189459;23;20091;-72
2023/03/05 08:33:12;;;;;;;0.52;0.52;;;4.00;99.90;;;;;;6189507;23;20028;-71
2023/03/05 08:35:37;;;;;;;0.57;0.57;;;4.00;99.90;;;;;;6189396;23;20047;-69
2023/03/05 08:38:03;;;;;;;0.60;0.60;;;4.00;99.90;;;;;;6189391;23;20017;-71
2023/03/05 08:40:29;;;;;;;0.50;0.50;;;4.10;99.90;;;;;;6215582;23;20016;-73
2023/03/05 08:42:56;;;;;;;0.40;0.40;;;4.20;99.90;;;;;;6189365;23;20127;-74
2023/03/05 08:45:22;;;;;;;0.50;0.50;;;4.40;99.90;;;;;;6189305;23;20059;-73
2023/03/05 08:47:48;;;;;;;0.40;0.40;;;4.40;99.90;;;;;;6189463;23;20044;-71
2023/03/05 08:50:14;;;;;;;0.40;0.40;;;4.30;99.90;;;;;;6189332;23;20019;-75
2023/03/05 08:52:39;;;;;;;0.50;0.50;;;4.40;99.90;;;;;;6216122;23;20019;-76
2023/03/05 08:55:05;;;;;;;0.55;0.55;;;4.30;99.90;;;;;;6189287;23;20019;-85
2023/03/05 08:57:31;;;;;;;0.50;0.50;;;4.40;99.90;;;;;;6189297;23;20151;-75
2023/03/05 08:59:57;;;;;;;0.40;0.40;;;4.40;99.90;;;;;;6164380;23;20028;-75
2023/03/05 09:02:22;;;;;;;0.50;0.50;;;4.40;99.90;;;;;;6164652;23;20048;-75
2023/03/05 09:04:51;;;;;;;0.40;0.40;;;4.30;99.90;;;;;;6189207;23;20013;-75
2023/03/05 09:07:16;;;;;;;0.47;0.47;;;4.40;99.90;;;;;;6216207;23;20023;-75
2023/03/05 09:09:42;;;;;;;0.50;0.50;;;4.50;99.90;;;;;;6216175;23;20021;-75
2023/03/05 09:12:08;;;;;;;0.40;0.40;;;4.50;99.90;;;;;;6189395;23;20087;-75
2023/03/05 09:14:34;;;;;;;0.50;0.50;;;4.80;99.90;;;;;;6189702;23;20009;-75
2023/03/05 09:17:01;;;;;;;0.40;0.40;;;4.90;99.90;;;;;;6189222;23;20287;-75
2023/03/05 09:19:26;;;;;;;0.50;0.50;;;4.90;99.90;;;;;;6216304;23;20394;-75
2023/03/05 09:21:52;;;;;;;0.50;0.50;;;5.00;99.90;;;;;;6216108;23;20008;-75
2023/03/05 09:24:18;;;;;;;0.45;0.45;;;5.00;99.90;;;;;;6189185;23;20012;-75
2023/03/05 09:26:43;;;;;;;0.50;0.50;;;5.10;99.90;;;;;;6189226;23;20028;-74
2023/03/05 09:29:09;;;;;;;0.47;0.47;;;5.20;99.90;;;;;;6216255;23;20448;-75
2023/03/05 09:31:35;;;;;;;0.50;0.50;;;5.20;99.90;;;;;;6216904;23;20013;-76
2023/03/05 09:34:01;;;;;;;0.50;0.50;;;5.40;99.90;;;;;;6216399;23;20084;-76
2023/03/05 09:36:29;;;;;;;0.50;0.50;;;5.40;99.90;;;;;;6216024;23;20051;-76
2023/03/05 09:38:55;;;;;;;0.40;0.40;;;5.60;99.90;;;;;;6216084;23;20016;-75
2023/03/05 09:41:56;;;;;;;0.40;0.40;;;5.60;99.90;;;;;;6190056;23;20154;-77
2023/03/05 09:44:28;;;;;;;0.50;0.50;;;5.70;99.90;;;;;;6144398;23;20020;-75
2023/03/05 09:47:16;;;;;;;0.40;0.40;;;5.70;99.90;;;;;;6217866;23;20009;-75
2023/03/05 09:49:56;;;;;;;0.40;0.40;;;5.80;99.90;;;;;;6218116;23;20012;-75
2023/03/05 09:52:25;;;;;;;;;;;6.00;99.90;;;;;;6191249;23;20016;-75
2023/03/05 09:54:56;;;;;;;0.50;0.50;;;6.10;99.90;;;;;;6217855;23;19994;-75
2023/03/05 09:57:27;;;;;;;0.40;0.40;;;6.20;99.90;;;;;;6166168;23;20044;-75
2023/03/05 10:00:00;;;;;;;0.30;0.30;;;6.30;99.90;;;;;;6190799;23;20013;-74
2023/03/05 10:02:30;;;;;;;0.50;0.50;;;6.40;99.90;;;;;;6191268;23;20091;-76
2023/03/05 10:05:18;;;;;;;0.40;0.40;;;6.40;99.90;;;;;;6217685;23;20059;-76
2023/03/05 10:07:54;;;;;;;0.32;0.32;;;6.40;99.90;;;;;;6165907;23;20063;-76
2023/03/05 10:10:28;;;;;;;0.35;0.35;;;6.30;99.90;;;;;;6217722;23;20027;-76
2023/03/05 10:12:58;;;;;;;0.40;0.40;;;6.30;99.90;;;;;;6190752;23;20020;-76
2023/03/05 10:15:42;;;;;;;0.40;0.40;;;6.30;99.90;;;;;;6217485;23;20315;-76
2023/03/05 10:18:16;;;;;;;0.50;0.50;;;6.10;99.90;;;;;;6191537;23;20051;-76
2023/03/05 10:21:02;;;;;;;0.40;0.40;;;6.20;99.90;;;;;;6190558;23;20023;-76
2023/03/05 10:23:49;;;;;;;0.30;0.30;;;6.10;99.90;;;;;;6190655;23;20012;-76
2023/03/05 10:26:52;;;;;;;0.30;0.30;;;5.90;99.90;;;;;;6217712;23;20080;-76
2023/03/05 10:29:27;;;;;;;0.40;0.40;;;5.70;99.90;;;;;;6165692;23;20048;-77
2023/03/05 10:32:16;;;;;;;0.40;0.40;;;5.30;99.90;;;;;;6217667;23;20040;-76
2023/03/05 10:35:03;;;;;;;0.40;0.40;;;5.10;99.90;;;;;;6201184;23;20009;-76
2023/03/05 10:37:53;;;;;;;0.40;0.40;;;5.00;99.90;;;;;;6165615;23;20012;-76
2023/03/05 10:40:28;;;;;;;;;;;4.90;99.90;;;;;;6165890;23;20114;-75
2023/03/05 10:43:14;;;;;;;0.30;0.30;;;4.70;99.90;;;;;;6190384;23;19915;-77
2023/03/05 10:45:52;;;;;;;0.30;0.30;;;4.80;99.90;;;;;;6165959;23;20016;-73
2023/03/05 10:48:41;;;;;;;0.30;0.30;;;4.80;99.90;;;;;;6216893;23;20078;-72
2023/03/05 10:51:21;;;;;;;0.40;0.40;;;4.70;99.90;;;;;;6217279;23;20004;-73
2023/03/05 10:53:53;;;;;;;0.30;0.30;;;4.80;99.90;;;;;;6190245;23;20009;-72
2023/03/05 10:56:21;;;;;;;0.47;0.47;;;5.10;99.90;;;;;;6190106;23;20008;-73
2023/03/05 10:58:47;;;;;;;0.38;0.38;;;5.30;99.90;;;;;;6165336;23;20079;-73
2023/03/05 11:01:14;;;;;;;0.30;0.30;;;5.50;99.90;;;;;;6190460;23;20004;-73
2023/03/05 11:03:52;;;;;;;0.40;0.40;;;5.70;99.90;;;;;;6165621;23;20017;-75
2023/03/05 11:06:33;;;;;;;0.32;0.32;;;5.90;99.90;;;;;;6165377;23;20319;-73
2023/03/05 11:09:28;;;;;;;0.40;0.40;;;5.50;99.90;;;;;;6190369;23;20034;-78
2023/03/05 11:12:03;;;;;;;0.40;0.40;;;5.50;99.90;;;;;;6216667;23;20016;-75
2023/03/05 11:14:32;;;;;;;0.30;0.30;;;5.60;99.90;;;;;;6165296;23;20078;-75
2023/03/05 11:17:00;;;;;;;0.40;0.40;;;5.60;99.90;;;;;;6217178;23;20088;-78
2023/03/05 11:19:31;;;;;;;0.30;0.30;;;5.60;99.90;;;;;;6216721;23;20446;-75
2023/03/05 11:22:24;;;;;;;0.40;0.40;;;5.60;99.90;;;;;;6216919;23;20008;-75
2023/03/05 11:25:09;;;;;;;0.40;0.40;;;5.70;99.90;;;;;;6185265;23;20013;-76
2023/03/05 11:27:53;;;;;;;0.30;0.30;;;5.80;99.90;;;;;;6169502;23;20017;-76
2023/03/05 11:30:39;;;;;;;0.50;0.50;;;5.90;99.90;;;;;;6165212;23;20063;-75
2023/03/05 11:33:19;;;;;;;0.40;0.40;;;6.00;99.90;;;;;;6189983;23;20020;-76
2023/03/05 11:35:45;;;;;;;0.40;0.40;;;6.20;99.90;;;;;;6216841;23;20303;-74
2023/03/05 11:38:26;;;;;;;0.40;0.40;;;6.40;99.90;;;;;;6216678;23;20330;-75
2023/03/05 11:40:54;;;;;;;0.40;0.40;;;6.50;99.90;;;;;;6189647;23;20075;-75
2023/03/05 11:43:23;;;;;;;0.40;0.40;;;6.70;99.90;;;;;;6189863;23;20013;-77
2023/03/05 11:45:53;;;;;;;0.40;0.40;;;6.90;99.90;;;;;;6190344;23;20009;-77
2023/03/05 11:48:18;;;;;;;0.40;0.40;;;6.90;99.90;;;;;;6190016;23;20004;-74
2023/03/05 11:50:50;;;;;;;0.40;0.40;;;7.20;99.90;;;;;;6190216;23;20511;-76
2023/03/05 11:53:35;;;;;;;0.30;0.30;;;7.30;99.90;;;;;;6216670;23;20023;-81
2023/03/05 11:56:13;;;;;;;0.40;0.40;;;7.60;99.90;;;;;;6189673;23;20092;-77
2023/03/05 11:58:47;;;;;;;0.40;0.40;;;7.80;99.90;;;;;;6189675;23;20019;-76
2023/03/05 12:01:20;;;;;;;0.40;0.40;;;7.90;99.90;;;;;;6165190;23;20012;-76
2023/03/05 12:03:46;;;;;;;0.35;0.35;;;8.10;99.90;;;;;;6216770;23;20019;-75
2023/03/05 12:06:37;;;;;;;0.30;0.30;;;8.10;99.90;;;;;;6216346;23;20174;-76
2023/03/05 12:09:26;;;;;;;0.50;0.50;;;8.30;99.90;;;;;;6189607;23;20008;-77
2023/03/05 12:12:01;;;;;;;0.40;0.40;;;8.20;99.90;;;;;;6146552;23;20023;-79
2023/03/05 12:14:47;;;;;;;0.38;0.38;;;8.10;99.90;;;;;;6189623;23;20434;-78
2023/03/05 12:17:20;;;;;;;0.40;0.40;;;7.60;99.90;;;;;;6164545;23;20016;-79
2023/03/05 12:19:58;;;;;;;0.38;0.38;;;7.50;99.90;;;;;;6190138;23;20009;-78
2023/03/05 12:22:38;;;;;;;0.40;0.40;;;7.40;99.90;;;;;;6190460;23;20012;-78
2023/03/05 12:25:27;;;;;;;0.40;0.40;;;7.40;99.90;;;;;;6189517;23;20022;-79
2023/03/05 12:27:53;;;;;;;0.30;0.30;;;7.70;99.90;;;;;;6189509;23;20092;-79
2023/03/05 12:30:34;;;;;;;0.40;0.40;;;7.80;99.90;;;;;;6189526;23;20016;-79
2023/03/05 12:33:02;;;;;;;0.40;0.40;;;8.10;99.90;;;;;;6216539;23;20030;-76
2023/03/05 12:35:29;;;;;;;0.30;0.30;;;8.30;99.90;;;;;;6189764;23;20013;-77
2023/03/05 12:37:56;;;;;;;0.40;0.40;;;8.40;99.90;;;;;;6189846;23;20334;-73
2023/03/05 12:40:27;;;;;;;0.30;0.30;;;8.30;99.90;;;;;;6189625;23;20086;-80
2023/03/05 12:42:53;;;;;;;0.30;0.30;;;8.30;99.90;;;;;;6216081;23;20448;-76
2023/03/05 12:45:22;;;;;;;0.30;0.30;;;8.30;99.90;;;;;;6189376;23;20019;-78
2023/03/05 12:48:10;;;;;;;0.40;0.40;;;8.30;99.90;;;;;;6164643;23;20013;-77
2023/03/05 12:50:36;;;;;;;0.28;0.28;;;8.30;99.90;;;;;;6189239;23;20012;-78
2023/03/05 12:53:18;;;;;;;0.30;0.30;;;8.20;99.90;;;;;;6189291;23;20016;-78
2023/03/05 12:55:46;;;;;;;0.30;0.30;;;7.90;99.90;;;;;;6189165;23;20016;-81
2023/03/05 12:58:40;;;;;;;0.40;0.40;;;7.80;99.90;;;;;;6189283;23;20043;-72
2023/03/05 13:01:18;;;;;;;0.40;0.40;;;7.90;99.90;;;;;;6188734;23;20016;-70
2023/03/05 13:03:49;;;;;;;0.40;0.40;;;7.80;99.90;;;;;;6188172;23;20013;-75
2023/03/05 13:06:41;;;;;;;0.32;0.32;;;8.00;99.90;;;;;;6188998;23;20017;-74
2023/03/05 13:09:26;;;;;;;0.55;0.55;;;7.90;99.90;;;;;;6210334;23;20023;-77